Olamon, Maine
Current Conditions -  °F | °C
As of 6:53 PM on Saturday 25 Oct 2014 (Local Time) from KBGR Reporting Station
Broken Clouds Broken Clouds  
Wind Chill:   Ceiling: 25000
Heat Index:   Visibility: 10mi
Dew Point:   Wind: 6mph
Humidity: 71%   Direction: 170°S
Pressure: 29.54"   Gusts: NA
Location:  45.12°N, 68.6°W
Report Text: KBGR 252253Z 17005KT 10SM BKN250 09/04 A2954 RMK AO2 SLP003 T00940044
Loading
Personal Weather Stations






























Interactive Weather Map
Tropical Storm Tracking
New forecast layout! Learn more

10-Day Weather Forecast

Advertisements
Track Severe Weather on mobile